Date,TemperatureHighF,TemperatureAvgF,TemperatureLowF,DewpointHighF,DewpointAvgF,DewpointLowF,HumidityHigh,HumidityAvg,HumidityLow,PressureMaxIn,PressureMinIn,WindSpeedMaxMPH,WindSpeedAvgMPH,GustSpeedMaxMPH,PrecipitationSumIn
2013-1-1,20,7,-4,17,3,-8,88,82,69,30.46,30.20,7,1,9,0.00
2013-1-2,22,17,14,20,15,12,93,91,87,30.23,30.11,5,1,9,0.00
2013-1-3,22,15,12,19,11,6,89,82,69,30.42,30.23,6,2,12,0.00
2013-1-4,32,22,16,20,16,13,88,77,61,30.27,30.17,9,1,11,0.00
2013-1-5,26,19,12,17,14,10,91,82,67,30.23,29.99,5,1,10,0.00
2013-1-6,25,18,13,16,12,8,89,78,59,30.37,30.16,6,1,7,0.00
2013-1-7,38,30,16,27,24,13,89,77,65,30.17,30.02,10,2,14,0.00
2013-1-8,35,28,17,30,24,15,94,86,77,30.11,29.89,7,1,12,0.00
2013-1-9,36,32,25,28,24,21,87,75,60,30.48,30.04,13,3,20,0.00
2013-1-10,41,34,26,34,27,22,97,77,53,30.44,29.85,9,2,12,0.00
2013-1-11,42,38,35,42,37,35,99,98,97,29.85,29.46,6,1,12,0.00
2013-1-12,40,16,5,39,10,0,96,77,68,30.23,29.48,12,4,21,0.00
2013-1-13,9,6,2,4,1,-2,84,79,75,30.42,30.21,5,2,9,0.00
2013-1-14,14,9,5,6,3,2,87,78,61,30.60,30.43,6,1,8,0.00
2013-1-15,31,21,9,20,14,6,92,75,58,30.45,29.98,11,2,18,0.00
2013-1-16,37,27,15,33,19,0,94,74,47,30.36,29.80,9,3,20,0.00
2013-1-17,20,14,8,12,4,-3,78,64,53,30.55,30.37,8,1,11,0.00
2013-1-18,42,30,18,32,24,12,88,80,65,30.45,29.86,9,1,15,0.00
2013-1-19,39,26,4,32,20,-4,96,80,61,30.36,29.79,13,4,24,0.00
2013-1-20,8,3,-1,2,-5,-9,79,69,57,30.57,30.38,12,3,16,0.00
2013-1-21,-1,-5,-10,-10,-14,-17,75,68,60,30.55,30.46,10,3,14,0.00
2013-1-22,5,-3,-11,-2,-11,-17,75,69,60,30.63,30.45,6,1,11,0.00
2013-1-23,17,8,-4,9,-1,-15,86,68,51,30.80,30.34,17,3,20,0.00
2013-1-24,14,3,-6,4,-7,-16,67,64,57,30.88,30.35,6,1,10,0.00
2013-1-25,20,14,6,12,6,-1,80,69,61,30.47,30.11,12,4,19,0.00
2013-1-26,24,14,2,14,5,-2,87,69,56,30.52,30.28,6,1,11,0.00
2013-1-27,34,30,24,31,24,14,97,80,61,30.27,29.92,5,1,9,0.00
2013-1-28,34,32,31,34,32,31,99,98,97,30.02,29.75,7,1,10,0.00
2013-1-29,36,33,29,33,30,23,99,91,80,29.85,29.65,7,2,16,0.00
2013-1-30,28,18,10,23,12,3,83,77,72,29.90,29.76,13,5,20,0.00
2013-1-31,9,2,-6,3,-5,-14,81,73,67,30.46,29.91,12,5,17,0.00
2013-2-1,6,-3,-11,2,-9,-16,86,74,59,30.52,30.25,5,1,8,0.00
2013-2-2,12,7,2,7,2,-3,87,79,66,30.37,30.14,5,1,7,0.00
2013-2-3,14,11,5,10,6,1,88,79,66,30.26,30.13,6,1,10,0.00
2013-2-4,16,12,6,12,5,-1,89,73,59,30.24,29.91,4,1,9,0.00
2013-2-5,29,23,12,26,18,9,95,82,64,30.22,29.81,9,2,13,0.00
2013-2-6,25,17,6,21,14,3,90,87,82,30.26,30.09,5,1,10,0.00
2013-2-7,28,26,22,24,23,20,94,87,79,30.38,30.13,9,2,14,0.00
2013-2-8,28,24,20,22,17,15,87,76,61,30.52,30.36,8,2,11,0.00
2013-2-9,33,29,26,29,26,22,93,88,85,30.36,30.05,13,3,18,0.00
2013-2-10,34,31,29,34,30,26,98,94,88,30.05,29.38,9,2,16,0.00
2013-2-11,30,26,19,30,22,15,98,84,75,30.17,29.45,10,4,17,0.00
2013-2-12,36,26,16,26,20,13,90,79,64,30.18,29.93,8,2,11,0.00
2013-2-13,39,30,20,32,25,17,96,84,66,29.94,29.68,6,1,9,0.00
2013-2-14,33,27,17,32,21,6,97,79,44,30.31,29.69,10,1,17,0.00
2013-2-15,18,13,7,7,4,2,81,69,56,30.46,30.31,8,2,14,0.00
2013-2-16,20,10,3,8,4,-1,87,77,58,30.43,30.28,4,0,6,0.00
2013-2-17,32,22,9,24,15,5,83,77,68,30.28,29.77,10,2,19,0.00
2013-2-18,34,24,9,32,20,5,91,81,74,29.93,29.64,11,3,15,0.00
2013-2-19,9,6,2,5,-2,-5,81,70,60,30.54,29.94,15,5,20,0.00
2013-2-20,18,8,-2,6,0,-7,83,71,59,30.65,30.55,5,1,9,0.00
2013-2-21,23,16,7,14,8,3,83,71,60,30.62,30.25,7,1,12,0.00
2013-2-22,28,24,20,23,20,14,93,86,70,30.24,29.99,6,2,15,0.00
2013-2-23,30,24,20,25,21,17,92,86,74,30.09,29.98,5,1,10,0.00
2013-2-24,35,24,12,23,18,10,92,79,63,30.24,30.09,6,0,9,0.00
2013-2-25,38,30,22,26,24,20,92,78,63,30.24,30.15,3,0,6,0.00
2013-2-26,36,29,20,29,24,18,95,83,71,30.18,30.00,11,2,16,0.00
2013-2-27,39,33,30,27,26,24,84,76,60,30.14,29.99,10,4,17,0.00
2013-2-28,31,29,25,24,22,17,80,74,69,30.35,30.14,10,3,13,0.00
2013-3-1,31,26,19,19,17,14,78,70,60,30.49,30.35,7,2,13,0.00
2013-3-2,31,22,11,14,11,9,91,65,41,30.50,30.31,5,0,7,0.00
2013-3-3,33,26,18,15,12,9,74,56,41,30.31,30.11,9,2,13,0.00
2013-3-4,28,26,24,24,19,12,94,77,50,30.16,30.08,13,2,14,0.00
2013-3-5,30,26,23,26,24,19,95,90,82,30.44,30.11,8,2,14,0.00
2013-3-6,28,24,16,21,18,13,88,80,70,30.56,30.44,8,2,11,0.00
2013-3-7,32,22,10,20,16,8,93,78,62,30.54,30.43,7,1,12,0.00
2013-3-8,40,30,19,31,25,17,90,80,70,30.47,30.21,6,1,11,0.00
2013-3-9,37,36,33,37,35,29,98,95,80,30.21,29.81,6,1,9,0.00
2013-3-10,36,34,31,35,31,26,98,88,82,30.06,29.89,14,5,19,0.00
2013-3-11,31,28,24,26,23,19,86,81,71,29.98,29.87,12,3,18,0.00
2013-3-12,29,25,22,20,17,12,84,71,51,30.32,29.97,15,4,18,0.00
2013-3-13,33,24,15,20,14,11,87,69,44,30.53,30.33,6,2,9,0.00
2013-3-14,41,31,24,30,25,19,93,78,64,30.39,30.13,6,1,11,0.00
2013-3-15,35,32,25,32,29,23,95,89,83,30.13,29.94,5,1,14,0.00
2013-3-16,26,22,15,23,14,5,93,74,56,30.38,30.02,9,3,13,0.00
2013-3-17,28,19,9,20,8,1,73,63,54,30.42,30.03,8,2,16,0.00
2013-3-18,29,22,13,28,17,7,96,81,71,30.02,29.73,12,5,20,0.00
2013-3-19,23,14,8,8,4,-1,78,64,48,30.36,29.96,12,5,16,0.00
2013-3-20,22,14,6,6,2,-2,70,60,49,30.38,30.27,12,4,20,0.00
2013-3-21,28,18,6,12,7,1,85,64,50,30.29,30.19,6,1,9,0.00
2013-3-22,37,25,11,18,13,7,87,63,42,30.25,30.17,5,1,6,0.00
2013-3-23,39,30,18,21,18,14,86,63,43,30.28,30.21,5,0,8,0.00
2013-3-24,33,30,29,26,23,21,83,74,66,30.22,30.10,10,2,14,0.00
2013-3-25,38,32,24,22,20,17,74,62,48,30.34,30.16,12,3,16,0.00
2013-3-26,39,33,26,23,22,20,77,64,48,30.42,30.34,6,1,8,0.00
2013-3-27,43,34,22,24,21,19,90,63,39,30.47,30.41,7,1,8,0.00
2013-3-28,44,34,22,28,24,20,94,68,42,30.47,30.39,5,1,9,0.00
2013-3-29,50,39,28,37,31,25,88,75,55,30.41,30.18,7,1,11,0.00
2013-3-30,54,45,38,44,39,33,95,80,63,30.18,29.93,6,2,11,0.00
2013-3-31,39,35,25,33,24,13,94,68,37,30.20,29.90,13,5,19,0.00
2013-4-1,34,26,18,18,14,12,77,62,44,30.39,30.21,11,4,15,0.00
2013-4-2,37,28,19,18,16,12,86,62,36,30.49,30.39,7,2,13,0.00
2013-4-3,46,34,19,32,23,16,90,65,43,30.54,30.17,11,3,21,0.00
2013-4-4,50,44,36,35,29,23,78,57,39,30.27,30.11,9,4,17,0.00
2013-4-5,43,36,29,33,24,18,94,65,42,30.35,30.02,8,2,15,0.00
2013-4-6,55,42,36,44,35,29,92,77,62,30.01,29.59,11,3,17,0.00
2013-4-7,48,42,36,40,36,32,92,78,66,30.04,29.84,6,2,10,0.00
2013-4-8,46,43,41,42,41,37,97,92,85,30.14,29.78,8,1,12,0.00
2013-4-9,43,39,32,37,33,28,93,80,62,30.28,30.07,14,5,21,0.00
2013-4-10,40,35,30,30,27,24,95,74,58,30.31,30.02,11,3,19,0.00
2013-4-11,36,34,31,33,31,26,96,90,69,30.02,29.80,11,3,19,0.00
2013-4-12,36,32,28,31,29,27,96,88,72,29.96,29.80,7,1,11,0.00
2013-4-13,36,33,29,28,27,24,94,79,64,30.08,29.95,6,2,10,0.00
2013-4-14,37,33,30,36,30,24,97,88,71,30.07,29.60,14,4,18,0.00
2013-4-15,40,36,33,35,30,27,96,79,70,30.09,29.64,11,4,20,0.00
2013-4-16,45,38,33,30,29,27,83,69,53,30.43,30.08,8,2,13,0.00
2013-4-17,42,38,34,37,32,28,96,78,70,30.43,30.01,9,2,17,0.00
2013-4-18,35,33,32,34,32,30,98,96,90,30.04,29.62,11,4,18,0.00
2013-4-19,38,32,30,31,28,20,98,83,58,30.11,29.60,14,4,20,0.00
2013-4-20,41,33,23,20,16,11,77,53,31,30.42,30.12,5,1,9,0.00
2013-4-21,50,41,34,48,37,19,96,85,54,30.43,30.11,14,3,20,0.00
2013-4-22,43,37,32,38,34,32,98,87,66,30.31,30.21,9,2,14,0.00
2013-4-23,42,35,28,32,27,20,98,77,46,30.27,30.17,7,2,12,0.00
2013-4-24,50,38,27,35,29,24,92,72,41,30.19,30.01,12,3,24,0.00
2013-4-25,51,42,33,34,30,26,89,66,40,30.31,30.08,7,3,13,0.00
2013-4-26,71,58,45,46,40,31,75,52,31,30.20,30.07,10,2,18,0.00
2013-4-27,74,61,42,49,40,36,82,50,28,30.20,29.95,8,1,17,0.00
2013-4-28,80,66,53,55,49,46,89,58,34,29.95,29.68,10,3,19,0.00
2013-4-29,74,63,52,59,48,36,92,60,37,29.87,29.60,8,2,12,0.00
2013-4-30,71,65,58,60,48,29,83,56,25,30.01,29.46,12,3,18,0.00
2013-5-1,57,42,34,40,35,30,94,80,47,30.57,30.03,7,2,14,0.35
2013-5-2,46,40,36,33,29,27,85,64,48,30.65,30.52,12,4,18,0.00
2013-5-3,39,35,32,34,30,26,94,84,62,30.52,30.28,10,4,19,0.14
2013-5-4,48,40,33,42,37,32,96,89,77,30.28,30.23,9,3,13,0.06
2013-5-5,65,51,39,50,42,36,90,75,56,30.28,30.15,7,2,9,0.00
2013-5-6,75,61,45,51,47,43,93,63,38,30.19,30.07,6,1,10,0.00
2013-5-7,78,66,51,53,48,43,89,57,30,30.12,30.00,9,1,11,0.00
2013-5-8,77,65,56,59,52,48,90,66,36,30.05,29.98,4,1,10,0.09
2013-5-9,59,54,44,56,48,31,93,82,57,30.19,30.00,11,3,18,0.09
2013-5-10,67,52,37,44,29,23,77,46,19,30.21,29.95,7,2,12,0.01
2013-5-11,57,48,42,46,28,21,71,48,31,30.27,29.94,15,5,24,0.00
2013-5-12,58,47,36,26,22,16,62,40,20,30.32,30.17,8,2,13,0.00
2013-5-13,71,55,36,49,36,26,81,51,30,30.20,29.71,13,2,22,0.01
2013-5-14,97,74,50,57,48,33,91,46,15,29.74,29.48,12,2,25,0.00
2013-5-15,78,68,56,50,47,45,69,49,32,29.96,29.72,7,1,19,0.00
2013-5-16,83,71,55,51,45,32,77,43,24,29.97,29.87,8,1,23,0.00
2013-5-17,69,59,56,56,52,35,95,78,28,30.05,29.93,8,1,11,0.20
2013-5-18,80,66,56,67,60,55,100,85,60,30.08,29.84,9,1,17,0.99
2013-5-19,81,69,64,69,65,62,98,87,62,29.85,29.59,9,1,22,1.37
2013-5-20,72,66,60,64,61,58,99,85,62,29.62,29.54,8,2,17,0.10
2013-5-21,62,57,49,61,56,48,99,96,91,29.78,29.57,6,1,9,0.48
2013-5-22,52,49,46,51,48,45,99,95,82,30.05,29.77,11,2,18,0.12
2013-5-23,63,54,45,46,36,30,87,55,29,30.42,30.08,10,2,13,0.00
2013-5-24,68,56,38,55,41,30,92,61,38,30.49,30.25,8,1,15,0.19
2013-5-25,62,57,53,52,49,45,96,76,61,30.34,30.30,11,2,16,0.02
2013-5-26,59,56,54,50,44,39,73,64,53,30.30,30.11,12,2,15,0.00
2013-5-27,61,57,55,56,52,49,97,84,72,30.13,29.91,6,1,13,0.07
2013-5-28,60,56,54,57,55,52,98,94,91,29.90,29.79,6,0,9,0.03
2013-5-29,74,65,54,71,62,53,99,91,80,29.90,29.69,10,1,14,0.98
2013-5-30,76,69,64,67,64,63,99,85,65,29.72,29.56,14,2,22,0.13
2013-5-31,78,68,61,63,60,53,98,79,47,29.60,29.54,13,2,24,0.27
2013-6-1,72,61,52,62,55,45,97,81,57,30.00,29.59,8,1,18,0.05
2013-6-2,66,57,49,46,42,40,77,59,40,30.16,30.01,8,1,14,0.00
2013-6-3,72,61,46,49,46,42,96,61,35,30.14,30.00,5,0,9,0.00
2013-6-4,63,60,55,55,51,46,92,73,60,30.15,30.05,10,1,17,0.03
2013-6-5,59,56,55,58,55,52,98,96,84,30.12,30.01,4,0,7,0.19
2013-6-6,57,54,50,54,52,50,99,94,87,30.11,30.04,4,1,9,0.00
2013-6-7,65,59,54,54,53,52,96,82,65,30.13,29.98,4,0,6,0.00
2013-6-8,72,64,54,58,55,53,97,75,53,29.99,29.94,13,1,13,0.00
2013-6-9,67,60,57,63,58,56,98,92,75,29.96,29.83,9,1,12,0.07
2013-6-10,76,66,58,64,62,58,100,86,64,29.92,29.86,2,0,6,0.01
2013-6-11,76,67,56,69,64,56,100,88,73,29.95,29.85,3,0,8,0.00
2013-6-12,75,67,61,67,63,54,100,88,61,29.96,29.81,8,1,13,0.00
2013-6-13,77,69,59,58,55,51,78,61,46,30.14,29.98,5,1,11,0.00
2013-6-14,79,70,58,64,59,52,86,68,56,30.14,29.91,13,2,17,0.00
2013-6-15,75,70,63,70,66,62,96,87,76,29.95,29.88,7,0,12,0.09
2013-6-16,85,70,56,62,56,47,99,67,28,29.98,29.88,6,0,15,0.02
2013-6-17,80,71,59,61,58,55,94,65,42,30.06,29.91,11,1,11,0.00
2013-6-18,75,67,57,60,56,51,80,70,56,30.14,30.06,5,1,9,0.00
2013-6-19,84,73,59,64,60,56,90,66,41,30.12,29.98,5,1,9,0.00
2013-6-20,89,80,69,70,65,61,82,61,44,30.04,29.90,12,1,16,0.00
2013-6-21,82,77,69,70,68,65,93,72,57,30.10,29.77,7,1,21,1.39
2013-6-22,81,72,66,71,68,65,99,88,72,30.05,29.87,4,0,12,0.46
2013-6-23,83,75,70,71,68,66,97,81,57,29.92,29.73,10,2,20,0.31
2013-6-24,82,73,64,73,68,63,99,85,64,29.95,29.84,5,0,17,0.07
2013-6-25,85,76,65,75,69,64,95,80,63,29.87,29.74,9,1,15,0.00
2013-6-26,86,79,73,77,72,65,98,80,55,29.84,29.69,5,1,9,0.28
2013-6-27,86,78,68,68,62,55,94,62,35,29.84,29.81,11,2,12,0.00
2013-6-28,77,72,66,66,62,58,92,71,53,29.84,29.78,10,2,19,0.13
2013-6-29,76,69,62,64,59,51,97,72,42,30.03,29.79,11,2,14,0.02
2013-6-30,81,70,58,58,54,47,87,59,35,30.16,30.03,6,1,13,0.00
2013-7-1,84,74,60,62,57,53,94,59,37,30.23,30.16,4,0,11,0.00
2013-7-2,82,73,59,57,55,47,81,56,36,30.20,30.09,4,1,11,0.00
2013-7-3,84,74,57,62,55,50,96,56,32,30.12,29.99,3,0,10,0.00
2013-7-4,88,78,66,65,59,57,76,55,35,30.01,29.89,10,1,14,0.00
2013-7-5,87,80,70,65,63,59,76,56,45,29.94,29.83,14,2,19,0.01
2013-7-6,90,81,74,69,65,62,68,59,48,29.91,29.82,8,2,13,0.00
2013-7-7,90,82,74,72,69,66,84,65,52,29.90,29.82,7,1,14,0.00
2013-7-8,86,76,66,71,68,64,93,78,56,30.03,29.90,4,0,9,0.00
2013-7-9,84,78,70,73,70,66,98,78,63,29.99,29.79,6,1,12,0.49
2013-7-10,80,73,63,67,58,54,82,62,44,30.09,29.94,7,1,14,0.00
2013-7-11,85,74,60,64,59,56,96,63,38,30.16,30.01,8,1,12,0.00
2013-7-12,88,79,69,65,62,58,75,57,45,30.05,29.94,16,3,23,0.00
2013-7-13,79,74,66,71,66,59,100,77,56,30.11,29.95,7,2,15,0.76
2013-7-14,85,77,70,69,66,63,83,70,51,30.22,30.10,9,1,12,0.00
2013-7-15,87,79,68,72,68,66,94,71,50,30.27,30.19,6,1,10,0.00
2013-7-16,90,82,76,74,69,-100,88,69,54,30.23,30.19,4,-21,9,0.00
2013-7-17,92,84,76,74,72,71,86,68,52,30.27,30.13,7,1,10,0.00
2013-7-18,92,86,78,74,72,70,79,65,49,30.13,29.78,10,2,17,0.00
2013-7-19,85,81,74,72,66,60,81,62,46,29.92,29.73,4,1,10,0.00
2013-7-20,81,73,65,65,62,57,89,69,52,30.00,29.90,5,0,11,0.00
2013-7-21,80,70,59,69,62,50,96,75,61,30.01,29.84,5,1,10,0.00
2013-7-22,85,75,68,73,66,57,92,74,52,29.88,29.71,8,1,13,0.00
2013-7-23,75,69,62,58,55,52,80,63,48,30.07,29.89,8,1,12,0.00
2013-7-24,76,68,60,61,57,53,82,69,54,30.13,30.02,3,0,7,0.00
2013-7-25,80,74,64,68,63,58,88,70,50,30.03,29.94,3,0,8,0.00
2013-7-26,72,65,58,66,57,48,88,75,61,30.13,29.94,7,1,18,0.00
2013-7-27,62,57,53,53,49,46,83,75,60,30.14,30.00,10,1,16,0.00
2013-7-28,72,61,53,56,51,47,85,70,51,30.13,30.04,5,1,12,0.00
2013-7-29,76,66,53,58,55,51,98,72,50,30.20,30.13,4,0,11,0.00
2013-7-30,71,68,65,65,63,58,91,83,66,30.16,30.09,4,0,7,0.00
2013-7-31,78,70,61,67,61,52,98,76,42,30.12,30.03,4,0,9,0.00
2013-8-1,80,70,56,61,57,53,92,66,42,30.09,29.90,3,0,7,0.00
2013-8-2,76,70,61,62,56,51,86,63,43,30.09,29.89,9,1,9,0.00
2013-8-3,77,67,54,57,53,50,94,65,42,30.24,30.09,5,0,11,0.00
2013-8-4,74,66,54,59,55,51,92,70,53,30.29,30.07,6,0,8,0.00
2013-8-5,78,68,61,68,63,57,98,87,69,30.09,29.83,9,0,12,0.04
2013-8-6,84,69,58,70,63,56,97,82,57,29.89,29.73,8,1,14,0.94
2013-8-7,75,67,60,62,57,50,98,73,42,30.08,29.83,5,1,13,0.01
2013-8-8,74,65,56,61,58,55,97,78,58,30.11,30.04,3,0,9,0.00
2013-8-9,74,68,58,61,56,52,98,70,48,30.17,30.05,4,0,11,0.00
2013-8-10,74,68,63,58,55,50,77,63,45,30.24,30.14,3,0,6,0.00
2013-8-11,78,71,65,66,63,58,88,76,62,30.14,30.03,3,0,6,0.00
2013-8-12,79,71,63,66,59,54,95,68,44,30.11,30.03,6,1,12,0.00
2013-8-13,74,66,56,58,51,43,92,62,35,30.25,30.12,3,0,9,0.00
2013-8-14,76,65,55,58,54,52,95,70,45,30.26,30.16,4,0,6,0.00
2013-8-15,77,66,53,61,57,51,97,73,51,30.19,30.13,5,0,8,0.00
2013-8-16,79,70,59,61,58,55,93,66,45,30.24,30.18,4,0,10,0.00
2013-8-17,80,70,56,60,57,55,96,68,42,30.26,30.15,8,1,15,0.00
2013-8-18,81,72,61,61,59,56,86,65,47,30.19,30.05,13,1,16,0.00
2013-8-19,85,76,68,70,65,60,79,70,58,30.07,29.93,6,1,12,0.00
2013-8-20,88,80,72,74,71,67,84,73,62,29.95,29.88,7,2,14,0.00
2013-8-21,86,80,74,77,72,65,90,78,60,30.02,29.86,6,1,8,0.00
2013-8-22,85,77,68,64,56,52,68,49,34,30.16,30.03,9,1,10,0.00
2013-8-23,85,74,59,69,61,52,82,64,50,30.19,30.07,9,1,13,0.00
2013-8-24,88,79,71,74,70,65,84,73,61,30.11,29.97,11,2,19,0.00
2013-8-25,93,86,79,77,74,71,78,69,56,30.03,29.95,8,2,17,0.00
2013-8-26,94,86,79,78,76,74,86,72,58,30.00,29.85,7,1,13,0.00
2013-8-27,95,85,78,80,76,73,85,74,58,29.93,29.81,8,1,9,0.00
2013-8-28,90,81,72,75,72,66,96,76,46,30.03,29.93,3,0,7,0.00
2013-8-29,92,83,75,78,74,68,96,75,47,30.03,29.86,7,1,14,0.06
2013-8-30,83,78,72,73,68,64,88,74,60,29.96,29.84,8,1,15,0.00
2013-8-31,87,75,65,71,67,63,94,76,55,29.93,29.74,5,0,12,0.10
2013-9-1,72,69,63,67,61,55,88,76,67,30.03,29.76,5,1,13,0.01
2013-9-2,66,60,54,55,53,51,93,78,66,30.16,30.03,7,1,12,0.00
2013-9-3,76,62,48,62,55,47,99,80,54,30.18,30.06,3,0,7,0.00
2013-9-4,85,72,58,68,62,57,98,75,53,30.20,30.07,5,0,9,0.00
2013-9-5,81,72,63,68,61,55,83,70,54,30.27,30.15,5,0,9,0.00
2013-9-6,89,79,70,71,68,64,96,71,45,30.14,29.90,8,1,15,0.04
2013-9-7,91,81,71,73,69,63,90,68,48,30.04,29.88,8,1,11,0.00
2013-9-8,76,71,66,66,62,58,83,75,67,30.09,29.93,9,1,12,0.00
2013-9-9,92,79,70,75,70,66,94,78,54,29.93,29.65,9,1,14,0.00
2013-9-10,80,74,70,74,67,62,90,77,62,30.02,29.78,3,0,7,0.02
2013-9-11,82,73,62,64,59,51,96,65,36,30.10,30.02,4,0,13,0.00
2013-9-12,72,66,57,56,51,46,84,60,41,30.29,30.10,10,1,15,0.00
2013-9-13,68,59,47,49,47,45,94,66,45,30.36,30.16,4,0,8,0.00
2013-9-14,71,60,48,58,50,46,97,74,47,30.17,29.96,7,1,13,0.37
2013-9-15,64,58,51,58,55,46,98,87,72,30.39,29.95,8,1,13,0.24
2013-9-16,65,54,42,47,44,41,97,71,45,30.50,30.34,7,0,10,0.00
2013-9-17,66,57,49,58,51,44,97,80,66,30.34,30.02,9,2,18,0.04
2013-9-18,73,67,59,71,66,59,100,95,87,30.02,29.74,8,1,14,0.12
2013-9-19,76,71,66,72,68,60,98,89,74,29.83,29.68,4,0,13,0.19
2013-9-20,66,59,52,59,53,48,91,82,60,30.00,29.82,7,1,13,0.05
2013-9-21,62,54,48,50,48,46,94,81,61,30.08,29.99,4,0,8,0.00
2013-9-22,73,59,46,58,52,45,96,78,59,30.07,29.92,10,1,15,0.00
2013-9-23,73,63,54,56,53,49,86,70,52,30.03,29.93,10,2,17,0.00
2013-9-24,75,63,53,57,53,50,89,72,50,30.04,29.97,6,1,11,0.00
2013-9-25,73,62,50,57,53,49,98,76,52,30.05,29.93,8,1,11,0.00
2013-9-26,82,68,56,63,58,52,85,70,51,29.99,29.88,8,2,21,0.00
2013-9-27,84,74,66,66,63,60,84,69,50,29.97,29.84,12,2,21,0.00
2013-9-28,74,62,49,65,56,47,95,82,65,30.00,29.68,10,2,16,0.17
2013-9-29,76,60,44,50,47,42,95,66,36,30.05,29.86,8,1,16,0.01
2013-9-30,79,69,61,55,52,48,68,55,43,29.86,29.65,15,3,19,0.00
2013-10-1,75,67,51,55,47,36,78,51,25,30.04,29.64,7,1,15,0.00
2013-10-2,75,59,44,56,46,41,96,69,31,30.12,29.91,6,1,15,0.86
2013-10-3,60,58,56,58,57,55,99,96,92,30.00,29.89,5,0,9,0.03
2013-10-4,59,57,55,57,56,54,98,95,90,30.06,29.92,10,2,16,0.18
2013-10-5,60,55,44,60,53,43,99,91,74,29.96,29.79,5,0,25,0.01
2013-10-6,53,47,40,51,46,40,100,97,90,29.94,29.77,5,0,9,0.06
2013-10-7,65,52,41,50,45,41,100,80,43,30.07,29.93,3,0,10,0.00
2013-10-8,76,62,46,52,48,44,95,62,39,30.06,29.90,12,2,20,0.00
2013-10-9,75,66,58,56,52,49,76,60,45,30.10,29.99,7,2,16,0.00
2013-10-10,77,63,52,56,51,46,84,65,42,30.10,29.95,14,1,19,0.00
2013-10-11,74,66,56,62,56,52,91,71,54,29.94,29.69,12,2,23,0.10
2013-10-12,60,52,46,57,45,41,91,78,64,30.26,29.75,7,1,15,0.00
2013-10-13,59,47,36,42,39,34,97,76,43,30.54,30.27,5,0,6,0.00
2013-10-14,54,48,39,48,41,38,96,78,59,30.50,30.07,6,1,16,0.40
2013-10-15,54,50,47,53,49,46,98,97,94,30.06,29.75,7,1,21,0.57
2013-10-16,54,46,38,46,42,36,98,86,58,30.05,29.91,6,1,14,0.01
2013-10-17,58,46,36,47,41,35,97,84,52,29.98,29.86,4,0,9,0.22
2013-10-18,52,44,39,42,37,30,96,78,45,30.07,29.94,4,0,10,0.02
2013-10-19,47,40,34,40,37,32,94,88,74,29.93,29.78,4,0,11,0.09
2013-10-20,45,37,31,41,35,30,97,92,83,29.98,29.72,6,0,10,0.09
2013-10-21,39,35,29,33,26,23,87,69,57,30.07,29.99,5,1,13,0.00
2013-10-22,40,34,25,33,29,23,96,82,67,30.15,30.07,0,0,7,0.00
2013-10-23,38,36,34,33,27,21,88,72,58,30.22,30.12,4,0,10,0.00
2013-10-24,43,38,34,33,28,23,78,66,57,30.42,30.22,4,0,9,0.00
2013-10-25,58,45,29,44,35,27,91,71,55,30.43,29.87,10,1,16,0.00
2013-10-26,52,44,37,43,32,30,77,64,55,30.20,29.88,8,1,15,0.00
2013-10-27,57,43,30,36,32,27,89,66,45,30.23,29.91,7,1,13,0.00
2013-10-28,43,38,32,31,26,22,82,63,46,30.54,30.23,7,1,13,0.00
2013-10-29,42,38,31,38,30,23,93,74,66,30.53,30.20,5,0,10,0.06
2013-10-30,50,45,40,50,44,38,99,98,94,30.20,29.76,2,0,7,0.14
2013-10-31,50,44,41,50,43,39,99,96,90,29.75,29.49,4,0,6,0.01
2013-11-1,50,44,39,40,38,33,93,80,61,29.95,29.50,5,1,11,0.00
2013-11-2,49,40,32,37,32,30,93,75,52,30.20,29.95,3,0,7,0.00
2013-11-3,55,44,32,37,34,30,95,68,47,30.23,30.00,20,4,28,0.00
2013-11-4,49,45,34,46,38,32,95,80,62,30.25,29.93,14,3,17,0.18
2013-11-5,45,36,29,38,31,28,99,84,54,30.35,30.14,7,1,12,0.07
2013-11-6,39,34,31,32,28,23,96,80,60,30.28,30.13,4,1,10,0.16
2013-11-7,36,30,25,31,27,23,96,90,80,30.37,30.28,6,0,7,0.00
2013-11-8,46,35,22,40,29,21,97,79,58,30.32,29.71,16,3,24,0.00
2013-11-9,46,42,37,41,34,27,86,74,60,30.30,29.73,14,5,20,0.00
2013-11-10,42,38,32,33,30,27,82,72,63,30.44,30.20,7,2,12,0.00
2013-11-11,39,25,17,32,14,9,81,63,51,30.87,30.22,12,4,17,0.00
2013-11-12,28,20,13,15,10,8,80,66,46,30.94,30.60,6,1,9,0.00
2013-11-13,51,38,20,36,26,14,79,62,52,30.59,29.98,10,3,15,0.00
2013-11-14,52,42,34,40,34,31,89,76,62,29.98,29.85,6,1,8,0.00
2013-11-15,56,42,27,42,35,26,97,78,53,29.95,29.74,8,2,15,0.00
2013-11-16,49,45,42,49,43,36,99,91,74,29.73,29.32,9,2,13,0.10
2013-11-17,44,40,32,42,36,26,97,86,76,29.93,29.39,13,4,20,0.01
2013-11-18,35,30,23,26,22,20,88,73,60,30.39,29.93,14,3,19,0.00
2013-11-19,46,36,22,32,27,19,91,72,54,30.40,30.04,18,5,23,0.00
2013-11-20,44,42,38,36,31,28,91,68,54,30.14,30.00,13,4,17,0.00
2013-11-21,38,32,25,38,29,17,96,87,72,30.63,30.14,10,3,16,0.00
2013-11-22,34,24,14,17,12,4,81,63,37,30.78,30.59,14,3,22,0.00
2013-11-23,18,13,8,5,3,-1,81,66,45,31.00,30.78,10,2,15,0.00
2013-11-24,31,20,8,18,10,4,83,66,52,30.88,30.14,18,4,23,0.00
2013-11-25,39,34,28,29,25,18,81,69,60,30.20,30.05,11,4,18,0.00
2013-11-26,30,21,15,22,9,3,72,60,49,30.53,30.20,13,4,21,0.00
2013-11-27,25,18,10,12,9,6,84,67,55,30.54,30.22,9,2,13,0.00
2013-11-28,27,23,14,16,13,10,84,67,56,30.66,30.21,8,2,12,0.00
2013-11-29,33,24,11,23,16,8,91,75,58,30.66,30.28,11,2,16,0.00
2013-11-30,40,32,22,29,25,20,93,76,63,30.28,30.15,4,1,7,0.00
2013-12-1,34,29,20,26,24,18,93,82,72,30.31,30.04,4,0,5,0.01
2013-12-2,37,33,28,34,30,25,96,90,81,30.04,29.70,10,2,14,0.00
2013-12-3,36,35,32,35,34,31,98,97,95,29.90,29.70,7,1,10,0.00
2013-12-4,32,28,16,31,27,12,97,94,84,29.89,29.59,8,2,14,0.00
2013-12-5,14,7,1,11,2,-4,84,78,72,30.52,29.84,9,3,14,0.00
2013-12-6,4,0,-5,-3,-6,-11,84,78,70,30.84,30.52,6,2,11,0.00
2013-12-7,1,-4,-10,-6,-10,-14,83,76,64,30.93,30.77,9,1,9,0.00
2013-12-8,12,7,-1,9,4,-6,89,85,77,30.77,30.20,6,1,11,0.00
2013-12-9,12,2,-2,9,-3,-8,89,80,70,30.29,30.06,10,2,19,0.00
2013-12-10,13,7,3,9,2,-2,91,79,68,30.45,29.95,8,2,17,0.00
2013-12-11,5,-2,-6,-2,-9,-12,77,72,62,30.75,30.46,7,2,12,0.00
2013-12-12,19,13,2,13,7,-4,85,77,68,30.50,30.30,5,1,8,0.00
2013-12-13,17,14,12,12,9,7,87,79,74,30.44,30.28,7,2,13,0.00
2013-12-14,16,10,2,10,6,-4,88,82,75,30.44,30.24,8,2,12,0.00
2013-12-15,4,2,0,-4,-6,-7,79,70,60,30.33,30.27,9,1,10,0.00
2013-12-16,21,10,1,19,6,-8,91,81,65,30.32,30.07,7,1,11,0.00
2013-12-17,34,24,10,29,18,6,92,78,66,30.25,30.03,11,4,17,0.00
2013-12-18,38,25,9,28,19,6,91,80,69,30.22,29.79,12,1,12,0.00
2013-12-19,29,19,17,24,14,10,88,80,73,30.21,29.93,9,3,16,0.00
2013-12-20,19,18,14,15,14,12,89,85,82,30.18,30.00,7,1,9,0.00
2013-12-21,23,20,17,18,15,13,85,82,77,30.14,30.00,8,2,13,0.00
2013-12-22,19,15,6,16,12,2,88,85,79,30.39,30.09,7,3,11,0.00
2013-12-23,5,0,-3,2,-5,-9,85,78,73,30.69,30.39,7,2,11,0.00
2013-12-24,11,1,-11,7,-5,-15,88,78,59,30.69,30.32,9,2,17,0.00
2013-12-25,27,17,10,24,13,7,92,85,75,30.32,30.20,7,1,11,0.00
2013-12-26,27,20,11,23,17,9,91,87,82,30.31,30.22,2,0,5,0.00
2013-12-27,40,28,13,32,24,11,95,86,70,30.30,30.02,8,1,13,0.00
2013-12-28,48,32,21,34,27,18,96,85,57,30.11,29.74,10,2,21,0.00
2013-12-29,19,1,-9,16,-7,-16,86,69,56,30.50,30.12,10,3,20,0.00
2013-12-30,2,-4,-10,-1,-8,-16,85,81,73,30.50,30.39,5,0,7,0.00
2013-12-31,0,-4,-7,-4,-9,-13,85,78,71,30.61,30.39,7,1,9,0.00
2014-1-1,2,-2,-7,-5,-9,-14,74,72,70,30.70,30.60,6,1,10,0.00
2014-1-2,4,-2,-8,-6,-10,-13,79,68,50,30.70,30.57,4,1,7,0.00